Time;durP1;ratioP1;P1;durP2;ratioP2;P2;SDS_P1;SDS_P2;PMS_P1;PMS_P2;Temp;Humidity;BMP_temperature;BMP_pressure;BME280_temperature;BME280_humidity;BME280_pressure;Samples;Min_cycle;Max_cycle;Signal;HPM_P1;HPM_P2
2022/08/24 00:01:11;;;;;;;19.00;16.65;;;;;;;23.01;67.88;101561.28;5114676;28;20028;-56
2022/08/24 00:03:38;;;;;;;19.17;17.27;;;;;;;22.86;68.91;101561.81;5147475;27;20111;-56
2022/08/24 00:06:08;;;;;;;20.73;18.73;;;;;;;22.85;68.77;101553.81;5114476;28;20023;-56
2022/08/24 00:08:35;;;;;;;19.98;17.75;;;;;;;22.88;68.76;101557.09;5114304;28;20527;-55
2022/08/24 00:11:01;;;;;;;20.65;18.45;;;;;;;22.75;68.98;101556.66;5114413;28;20027;-56
2022/08/24 00:13:29;;;;;;;21.23;17.42;;;;;;;22.84;68.64;101546.72;5112355;28;20043;-56
2022/08/24 00:15:55;;;;;;;18.92;17.02;;;;;;;22.81;68.50;101560.59;5114261;28;20019;-56
2022/08/24 00:18:21;;;;;;;20.75;18.05;;;;;;;22.85;68.34;101565.56;5113657;28;20031;-56
2022/08/24 00:20:47;;;;;;;20.23;18.08;;;;;;;22.61;68.92;101565.38;5114139;28;20043;-56
2022/08/24 00:23:13;;;;;;;21.35;19.05;;;;;;;22.75;68.87;101570.22;5112931;28;20470;-56
2022/08/24 00:25:39;;;;;;;22.85;18.98;;;;;;;22.81;68.63;101568.72;5147241;27;20051;-56
2022/08/24 00:28:05;;;;;;;21.17;19.13;;;;;;;22.83;68.88;101564.00;5113397;28;20330;-56
2022/08/24 00:30:35;;;;;;;22.77;20.45;;;;;;;22.60;69.38;101563.66;5113917;28;20474;-56
2022/08/24 00:33:02;;;;;;;22.00;19.48;;;;;;;22.63;69.09;101575.03;5114031;27;20095;-56
2022/08/24 00:35:28;;;;;;;21.90;19.77;;;;;;;22.58;69.23;101581.94;5129625;27;20047;-56
2022/08/24 00:37:54;;;;;;;22.45;20.08;;;;;;;22.44;70.13;101586.94;5113637;28;20023;-56
2022/08/24 00:40:35;;;;;;;22.42;19.20;;;;;;;22.40;69.30;101573.84;5112654;28;20061;-56
2022/08/24 00:43:25;;;;;;;20.15;18.15;;;;;;;22.37;69.52;101580.41;5110741;28;20027;-56
2022/08/24 00:46:17;;;;;;;18.35;16.55;;;;;;;22.48;68.70;101581.19;5094290;28;20040;-56
2022/08/24 00:48:46;;;;;;;18.90;17.00;;;;;;;22.33;69.47;101573.63;5111311;28;20031;-56
2022/08/24 00:51:24;;;;;;;20.23;16.15;;;;;;;22.41;69.22;101573.69;5111681;28;20453;-56
2022/08/24 00:53:57;;;;;;;17.80;16.02;;;;;;;22.30;69.50;101576.66;5094040;28;20036;-56
2022/08/24 00:56:27;;;;;;;20.17;17.45;;;;;;;22.26;69.82;101588.78;5094218;28;20123;-56
2022/08/24 00:59:00;;;;;;;19.83;17.73;;;;;;;22.10;70.38;101585.91;5110490;28;20527;-56
2022/08/24 01:01:30;;;;;;;19.92;17.88;;;;;;;22.17;70.05;101587.00;5111011;28;20114;-56
2022/08/24 01:04:01;;;;;;;20.42;18.33;;;;;;;22.15;70.25;101580.88;5110933;28;20114;-56
2022/08/24 01:06:30;;;;;;;19.90;17.92;;;;;;;22.07;70.41;101578.94;5111270;28;20069;-56
2022/08/24 01:08:58;;;;;;;18.45;16.48;;;;;;;22.18;69.98;101578.75;5077268;28;20085;-56
2022/08/24 01:11:27;;;;;;;20.48;17.58;;;;;;;22.03;70.48;101572.13;5111039;28;20333;-56
2022/08/24 01:13:54;;;;;;;20.85;18.65;;;;;;;21.85;70.96;101574.78;5097021;28;20481;-56
2022/08/24 01:19:17;;;;;;;19.88;17.88;;;;;;;21.94;70.82;101582.03;5113488;28;20111;-56
2022/08/24 01:21:57;;;;;;;21.13;18.92;;;;;;;21.93;70.94;101579.47;5113207;28;20091;-56
2022/08/24 01:24:22;;;;;;;21.40;19.10;;;;;;;21.92;71.01;101581.31;5112719;28;20447;-56
2022/08/24 01:26:49;;;;;;;21.67;19.27;;;;;;;21.74;71.05;101580.44;5111753;28;20035;-56
2022/08/24 01:29:19;;;;;;;22.55;20.17;;;;;;;21.73;71.18;101582.28;5112065;28;20026;-56
2022/08/24 01:31:44;;;;;;;20.88;18.75;;;;;;;21.76;71.57;101583.81;5112361;28;20053;-56
2022/08/24 01:34:11;;;;;;;21.70;19.40;;;;;;;21.73;71.75;101576.84;5112861;28;20023;-56
2022/08/24 01:36:44;;;;;;;22.38;19.98;;;;;;;21.79;71.77;101586.22;5111476;28;20031;-56
2022/08/24 01:39:15;;;;;;;22.20;20.13;;;;;;;21.72;71.93;101577.03;5112898;28;20025;-57
2022/08/24 01:41:41;;;;;;;22.48;20.10;;;;;;;21.77;71.68;101574.72;5112768;28;20023;-56
2022/08/24 01:44:08;;;;;;;25.35;21.00;;;;;;;21.70;71.86;101579.03;5111710;28;20032;-56
2022/08/24 01:46:34;;;;;;;23.85;21.35;;;;;;;21.47;72.79;101568.63;5111393;28;20024;-56
2022/08/24 01:49:02;;;;;;;22.10;19.88;;;;;;;21.50;72.78;101557.50;5112346;27;20108;-56
2022/08/24 01:51:30;;;;;;;23.52;21.17;;;;;;;21.59;72.19;101566.56;5112444;28;20028;-56
2022/08/24 01:54:01;;;;;;;22.30;19.98;;;;;;;21.60;71.89;101570.97;5112547;28;20436;-56
2022/08/24 01:56:27;;;;;;;20.92;18.58;;;;;;;21.60;72.00;101570.13;5112692;28;20043;-56
2022/08/24 01:58:53;;;;;;;21.45;19.15;;;;;;;21.50;72.17;101565.63;5093222;28;20067;-56
2022/08/24 02:01:19;;;;;;;21.50;19.40;;;;;;;21.56;71.95;101564.16;5111157;28;20458;-56
2022/08/24 02:03:44;;;;;;;22.63;20.30;;;;;;;21.38;72.00;101561.38;5112284;28;20031;-56
2022/08/24 02:06:10;;;;;;;21.48;19.27;;;;;;;21.38;71.81;101571.34;5112359;28;20031;-56
2022/08/24 02:08:40;;;;;;;22.73;20.13;;;;;;;21.41;72.46;101573.75;5112200;28;20118;-56
2022/08/24 02:11:10;;;;;;;23.63;21.05;;;;;;;21.33;72.94;101569.09;5112463;28;20019;-56
2022/08/24 02:13:52;;;;;;;24.80;22.35;;;;;;;21.40;72.55;101569.34;5074836;28;20036;-56
2022/08/24 02:16:18;;;;;;;24.00;21.58;;;;;;;21.28;72.91;101569.50;5056035;28;20177;-56
2022/08/24 02:18:44;;;;;;;22.60;20.30;;;;;;;21.29;72.70;101571.22;5089514;28;20122;-56
2022/08/24 02:21:11;;;;;;;24.65;22.10;;;;;;;21.24;73.22;101572.69;5089629;28;20074;-56
2022/08/24 02:23:38;;;;;;;26.30;23.77;;;;;;;21.25;73.23;101569.81;5072597;28;20036;-56
2022/08/24 02:26:05;;;;;;;26.23;23.50;;;;;;;21.25;73.06;101575.22;5072656;28;20024;-56
2022/08/24 02:28:31;;;;;;;24.50;21.65;;;;;;;21.25;73.18;101574.38;5088822;28;20036;-57
2022/08/24 02:30:56;;;;;;;25.08;22.67;;;;;;;21.17;73.88;101574.25;5056222;28;20032;-56
2022/08/24 02:33:25;;;;;;;25.50;22.80;;;;;;;21.16;73.81;101580.69;5089296;28;20043;-56
2022/08/24 02:35:53;;;;;;;24.52;22.23;;;;;;;21.16;74.04;101588.81;5089449;28;20036;-56
2022/08/24 02:38:20;;;;;;;24.83;22.33;;;;;;;21.07;74.17;101579.72;5089416;28;20097;-56
2022/08/24 02:40:46;;;;;;;24.45;22.05;;;;;;;21.11;74.13;101589.22;5089512;28;20499;-56
2022/08/24 02:43:12;;;;;;;23.77;21.55;;;;;;;21.09;74.08;101583.13;5092618;28;20158;-56
2022/08/24 02:45:43;;;;;;;23.75;21.38;;;;;;;21.02;74.18;101593.66;5107388;28;20069;-56
2022/08/24 02:48:12;;;;;;;24.83;22.23;;;;;;;20.98;74.08;101577.91;5114662;28;20473;-56
2022/08/24 02:50:43;;;;;;;24.75;22.20;;;;;;;21.03;73.78;101586.41;5116142;28;20023;-56
2022/08/24 02:53:10;;;;;;;25.38;22.67;;;;;;;20.98;74.47;101586.00;5114585;28;20027;-57
2022/08/24 02:55:38;;;;;;;24.70;22.27;;;;;;;20.94;74.16;101588.16;5114202;28;20048;-56
2022/08/24 02:58:06;;;;;;;24.48;22.00;;;;;;;20.95;74.41;101592.56;5113585;28;20069;-56
2022/08/24 03:00:31;;;;;;;24.52;22.23;;;;;;;20.82;74.57;101586.59;5115802;28;20063;-56
2022/08/24 03:02:57;;;;;;;25.73;22.67;;;;;;;20.79;74.17;101582.31;5114333;28;20081;-56
2022/08/24 03:05:23;;;;;;;23.30;21.05;;;;;;;20.74;74.35;101589.19;5114595;28;20049;-56
2022/08/24 03:07:49;;;;;;;24.75;22.20;;;;;;;20.79;74.51;101590.44;5114183;28;20462;-56
2022/08/24 03:10:14;;;;;;;24.83;22.33;;;;;;;20.80;74.29;101572.41;5115549;28;20111;-56
2022/08/24 03:12:40;;;;;;;23.70;21.17;;;;;;;20.82;74.17;101578.50;5115346;28;20382;-56
2022/08/24 03:15:09;;;;;;;23.98;21.25;;;;;;;20.73;73.93;101580.22;5114918;28;20032;-56
2022/08/24 03:17:35;;;;;;;22.50;20.20;;;;;;;20.77;73.60;101572.69;5115492;28;20019;-56
2022/08/24 03:20:03;;;;;;;23.17;20.80;;;;;;;20.65;74.44;101588.22;5115148;28;20550;-56
2022/08/24 03:22:29;;;;;;;24.13;21.65;;;;;;;20.54;74.71;101581.09;5115274;28;20095;-56
2022/08/24 03:24:57;;;;;;;25.02;21.27;;;;;;;20.59;74.80;101584.25;5113637;28;20032;-56
2022/08/24 03:27:23;;;;;;;24.63;22.13;;;;;;;20.47;74.82;101579.06;5115045;28;20046;-56
2022/08/24 03:29:48;;;;;;;22.88;20.48;;;;;;;20.53;74.60;101583.94;5130624;27;20036;-56
2022/08/24 03:32:14;;;;;;;23.17;20.95;;;;;;;20.53;74.80;101579.41;5113946;28;20039;-56
2022/08/24 03:34:39;;;;;;;22.00;19.90;;;;;;;20.51;74.89;101577.81;5115053;28;20036;-55
2022/08/24 03:37:07;;;;;;;23.73;21.42;;;;;;;20.53;74.93;101576.72;5113751;28;20027;-56
2022/08/24 03:39:33;;;;;;;23.95;21.58;;;;;;;20.51;74.51;101578.66;5147117;27;20032;-56
2022/08/24 03:41:59;;;;;;;22.15;19.95;;;;;;;20.47;74.39;101576.38;5113668;28;20038;-56
2022/08/24 03:44:24;;;;;;;21.45;19.42;;;;;;;20.46;74.58;101578.22;5114090;28;20026;-56
2022/08/24 03:46:51;;;;;;;24.33;20.52;;;;;;;20.29;74.95;101571.69;5096603;28;20023;-56
2022/08/24 03:49:17;;;;;;;22.98;20.73;;;;;;;20.36;75.04;101570.13;5114829;28;20066;-56
2022/08/24 03:51:43;;;;;;;22.35;20.13;;;;;;;20.32;74.78;101579.50;5113946;28;20059;-56
2022/08/24 03:54:09;;;;;;;22.55;20.17;;;;;;;20.31;74.71;101575.09;5112160;28;20042;-56
2022/08/24 03:56:35;;;;;;;23.08;20.85;;;;;;;20.32;75.08;101579.50;5114974;28;20092;-56
2022/08/24 03:59:01;;;;;;;24.27;21.85;;;;;;;20.25;75.14;101572.97;5113906;28;20060;-56
2022/08/24 04:01:26;;;;;;;24.58;21.75;;;;;;;20.27;75.15;101580.94;5113412;28;20042;-56
2022/08/24 04:03:52;;;;;;;24.40;21.98;;;;;;;20.22;75.87;101585.91;5113142;28;20111;-56
2022/08/24 04:06:22;;;;;;;24.23;21.73;;;;;;;20.18;75.55;101588.06;5113414;28;20028;-56
2022/08/24 04:08:48;;;;;;;24.95;22.45;;;;;;;20.08;76.11;101579.06;5113879;28;20069;-56
2022/08/24 04:11:17;;;;;;;24.17;21.75;;;;;;;20.09;75.84;101587.06;5114668;28;20027;-55
2022/08/24 04:13:43;;;;;;;24.88;22.38;;;;;;;20.13;75.67;101587.63;5113963;28;20485;-56
2022/08/24 04:16:15;;;;;;;22.88;20.65;;;;;;;20.08;75.94;101588.03;5114341;28;20027;-56
2022/08/24 04:18:42;;;;;;;24.67;22.25;;;;;;;20.07;76.18;101590.88;5113143;28;20402;-55
2022/08/24 04:21:16;;;;;;;23.48;21.17;;;;;;;19.91;76.72;101586.88;5114333;28;20030;-56
2022/08/24 04:23:41;;;;;;;24.40;21.45;;;;;;;19.98;75.99;101591.72;5113977;28;20035;-56
2022/08/24 04:26:07;;;;;;;24.15;21.65;;;;;;;19.96;76.26;101586.44;5112786;28;20028;-56
2022/08/24 04:28:32;;;;;;;25.50;22.83;;;;;;;19.77;77.20;101595.38;5112150;28;20118;-56
2022/08/24 04:30:59;;;;;;;24.13;21.73;;;;;;;19.86;76.34;101594.53;5112454;28;20122;-56
2022/08/24 04:33:25;;;;;;;24.83;22.25;;;;;;;19.90;76.48;101593.25;5113043;28;20107;-56
2022/08/24 04:35:53;;;;;;;25.58;23.02;;;;;;;19.80;76.65;101594.25;5113880;28;20070;-56
2022/08/24 04:38:19;;;;;;;24.08;21.88;;;;;;;19.82;76.48;101592.25;5112400;28;20034;-56
2022/08/24 04:40:45;;;;;;;24.98;22.48;;;;;;;19.77;76.85;101600.78;5112465;28;20027;-56
2022/08/24 04:43:15;;;;;;;25.88;23.27;;;;;;;19.67;77.59;101598.03;5113340;28;20502;-56
2022/08/24 04:45:44;;;;;;;24.65;22.10;;;;;;;19.77;76.70;101594.53;5114034;28;20475;-56
2022/08/24 04:48:13;;;;;;;25.80;22.67;;;;;;;19.81;76.51;101595.94;5113549;28;20024;-56
2022/08/24 04:50:40;;;;;;;25.33;22.80;;;;;;;19.68;77.05;101602.47;5113367;28;20019;-56
2022/08/24 04:53:06;;;;;;;24.45;21.98;;;;;;;19.69;76.97;101604.16;5113434;28;20170;-56
2022/08/24 04:55:40;;;;;;;25.20;22.70;;;;;;;19.68;77.08;101609.72;5112129;28;20067;-56
2022/08/24 04:58:08;;;;;;;24.23;21.80;;;;;;;19.73;76.77;101600.19;5112671;28;20611;-56
2022/08/24 05:00:33;;;;;;;25.55;23.02;;;;;;;19.76;76.82;101609.84;5095412;28;20035;-56
2022/08/24 05:02:59;;;;;;;23.67;21.27;;;;;;;19.79;76.83;101606.88;5129079;27;20028;-56
2022/08/24 05:05:24;;;;;;;24.05;21.63;;;;;;;19.81;76.52;101610.28;5129147;27;20438;-56
2022/08/24 05:07:49;;;;;;;23.92;21.60;;;;;;;19.81;76.55;101609.44;5110973;28;20110;-57
2022/08/24 05:10:15;;;;;;;25.25;22.75;;;;;;;19.76;77.42;101611.69;5112034;28;20102;-57
2022/08/24 05:12:41;;;;;;;24.55;21.58;;;;;;;19.81;76.99;101613.00;5129022;27;20045;-57
2022/08/24 05:15:07;;;;;;;24.90;22.30;;;;;;;19.82;77.52;101611.16;5112529;28;20051;-56
2022/08/24 05:17:33;;;;;;;24.98;22.38;;;;;;;19.84;77.36;101615.41;5128754;27;20379;-56
2022/08/24 05:19:59;;;;;;;27.83;21.88;;;;;;;19.81;77.73;101609.44;5145924;27;20031;-57
2022/08/24 05:22:25;;;;;;;25.27;22.48;;;;;;;19.82;77.87;101616.53;5111186;28;20473;-57
2022/08/24 05:24:54;;;;;;;24.88;22.40;;;;;;;19.84;78.27;101612.72;5112648;28;20046;-56
2022/08/24 05:27:20;;;;;;;23.75;21.20;;;;;;;19.90;78.15;101614.00;5111653;28;20023;-56
2022/08/24 05:29:46;;;;;;;24.38;22.00;;;;;;;19.94;78.23;101619.00;5145197;27;20031;-57
2022/08/24 05:32:12;;;;;;;25.00;22.25;;;;;;;19.82;78.42;101595.78;5128634;27;20032;-57
2022/08/24 05:34:37;;;;;;;24.27;21.85;;;;;;;20.04;77.77;101620.88;5111221;28;20092;-56
2022/08/24 05:37:04;;;;;;;25.20;22.60;;;;;;;20.06;78.10;101624.25;5094016;28;20020;-56
2022/08/24 05:39:30;;;;;;;24.20;20.63;;;;;;;20.07;77.89;101618.75;5112474;28;20046;-57
2022/08/24 05:41:59;;;;;;;22.67;20.15;;;;;;;20.16;78.01;101631.41;5112581;28;20031;-57
2022/08/24 05:44:25;;;;;;;23.50;21.05;;;;;;;20.24;77.63;101629.88;5110871;28;20147;-57
2022/08/24 05:46:52;;;;;;;23.88;21.48;;;;;;;20.28;78.49;101626.72;5111256;28;20539;-57
2022/08/24 05:49:18;;;;;;;23.27;20.98;;;;;;;20.34;78.48;101625.31;5112152;28;20023;-56
2022/08/24 05:51:43;;;;;;;24.45;21.95;;;;;;;20.38;78.48;101622.19;5112462;28;20359;-57
2022/08/24 05:54:10;;;;;;;23.83;21.42;;;;;;;20.44;78.83;101623.44;5094164;28;20024;-56
2022/08/24 05:56:36;;;;;;;26.88;23.40;;;;;;;20.48;78.94;101624.03;5111042;28;20066;-57
2022/08/24 05:59:01;;;;;;;25.35;22.75;;;;;;;20.57;78.71;101625.91;5111669;28;20035;-56
2022/08/24 06:01:27;;;;;;;27.63;24.88;;;;;;;20.61;78.86;101625.47;5110906;28;20035;-57
2022/08/24 06:03:55;;;;;;;29.45;26.27;;;;;;;20.54;79.79;101618.94;5111783;28;20473;-57
2022/08/24 06:06:25;;;;;;;31.10;27.83;;;;;;;20.73;79.94;101626.16;5111128;28;20069;-56
2022/08/24 06:08:54;;;;;;;32.45;28.80;;;;;;;20.76;79.90;101622.34;5112024;28;20031;-56
2022/08/24 06:11:31;;;;;;;36.28;31.52;;;;;;;20.85;79.78;101630.44;5111704;28;20027;-56
2022/08/24 06:14:01;;;;;;;33.92;30.05;;;;;;;20.91;80.07;101622.72;5110251;28;20016;-57
2022/08/24 06:16:28;;;;;;;35.53;28.90;;;;;;;20.95;80.61;101638.53;5112059;28;20051;-56
2022/08/24 06:18:53;;;;;;;35.53;28.67;;;;;;;21.08;80.01;101639.06;5110521;28;20023;-57
2022/08/24 06:21:24;;;;;;;34.35;30.73;;;;;;;21.18;79.94;101636.34;5110700;28;20535;-56
2022/08/24 06:23:50;;;;;;;37.08;31.08;;;;;;;21.24;80.03;101635.75;5111880;28;20023;-57
2022/08/24 06:29:01;;;;;;;34.03;30.40;;;;;;;21.44;79.37;101642.00;5111802;28;20053;-56
2022/08/24 06:31:27;;;;;;;35.40;31.50;;;;;;;21.44;79.76;101638.41;5112080;28;20019;-56
2022/08/24 06:33:54;;;;;;;34.55;29.00;;;;;;;21.52;80.19;101643.94;5111753;28;20487;-57
2022/08/24 06:36:20;;;;;;;34.13;30.52;;;;;;;21.63;80.03;101645.63;5112063;28;20024;-57
2022/08/24 06:38:47;;;;;;;32.83;29.15;;;;;;;21.67;79.76;101649.72;5111633;28;20052;-57
2022/08/24 06:41:13;;;;;;;32.42;28.92;;;;;;;21.78;79.63;101653.09;5112163;28;20062;-57
2022/08/24 06:43:38;;;;;;;32.63;27.50;;;;;;;21.85;79.05;101650.63;5111353;28;20497;-56
2022/08/24 06:46:09;;;;;;;41.75;31.10;;;;;;;22.02;77.83;101659.81;5110641;28;20043;-56
2022/08/24 06:48:34;;;;;;;32.33;28.35;;;;;;;22.17;77.16;101657.47;5111611;28;20024;-56
2022/08/24 06:51:00;;;;;;;40.10;25.92;;;;;;;22.29;77.11;101660.81;5127763;27;20447;-56
2022/08/24 06:53:26;;;;;;;36.00;27.98;;;;;;;22.39;76.39;101665.16;5093247;28;20031;-57
2022/08/24 06:55:58;;;;;;;31.45;25.70;;;;;;;22.65;75.27;101661.69;5111792;28;20369;-56
2022/08/24 06:58:27;;;;;;;33.92;24.70;;;;;;;22.73;74.63;101659.03;5109889;28;20043;-56
2022/08/24 07:00:54;;;;;;;30.65;23.65;;;;;;;22.92;72.75;101662.59;5111633;28;20879;-57
2022/08/24 07:03:21;;;;;;;30.63;22.45;;;;;;;23.05;71.56;101665.75;5109998;28;20024;-56
2022/08/24 07:05:56;;;;;;;34.03;24.23;;;;;;;23.05;71.11;101665.75;5110520;28;20115;-57
2022/08/24 07:08:24;;;;;;;30.63;23.30;;;;;;;23.13;71.57;101665.81;5110270;28;20031;-57
2022/08/24 07:10:50;;;;;;;25.45;21.88;;;;;;;23.21;73.10;101675.91;5111673;28;20141;-56
2022/08/24 07:13:15;;;;;;;29.95;23.02;;;;;;;23.25;72.80;101674.56;5127153;27;20031;-57
2022/08/24 07:15:44;;;;;;;29.13;23.08;;;;;;;23.39;70.50;101673.13;5110360;28;20024;-56
2022/08/24 07:18:17;;;;;;;23.75;19.30;;;;;;;23.43;68.08;101679.91;5111376;28;20145;-57
2022/08/24 07:20:43;;;;;;;27.90;20.17;;;;;;;23.52;68.20;101674.38;5110623;28;20474;-56
2022/08/24 07:23:11;;;;;;;23.83;19.67;;;;;;;23.72;66.89;101687.75;5111295;28;20055;-56
2022/08/24 07:25:39;;;;;;;22.08;18.05;;;;;;;23.71;69.83;101669.75;5111581;28;20024;-56
2022/08/24 07:28:05;;;;;;;19.27;16.13;;;;;;;23.89;67.14;101680.53;5110186;28;20569;-57
2022/08/24 07:30:30;;;;;;;23.83;18.00;;;;;;;23.95;65.06;101679.88;5115624;28;20459;-56
2022/08/24 07:32:56;;;;;;;21.60;16.20;;;;;;;24.05;64.04;101677.84;5113321;28;20022;-56
2022/08/24 07:35:24;;;;;;;24.45;14.50;;;;;;;24.17;65.30;101679.25;5114928;28;20028;-57
2022/08/24 07:37:49;;;;;;;20.95;14.73;;;;;;;24.24;62.37;101677.59;5115040;28;20020;-57
2022/08/24 07:40:15;;;;;;;21.50;14.32;;;;;;;24.33;61.56;101680.34;5114840;28;20182;-56
2022/08/24 07:42:47;;;;;;;18.13;12.77;;;;;;;24.33;60.71;101678.47;5114016;28;20557;-56
2022/08/24 07:45:12;;;;;;;17.98;13.32;;;;;;;24.44;61.08;101680.03;5115012;28;20027;-56
2022/08/24 07:47:38;;;;;;;23.30;12.77;;;;;;;24.52;62.53;101680.03;5114324;28;20043;-56
2022/08/24 07:50:05;;;;;;;20.50;14.15;;;;;;;24.73;61.08;101682.25;5114819;28;20019;-57
2022/08/24 07:52:31;;;;;;;20.42;13.70;;;;;;;25.00;60.55;101682.94;5113601;28;20390;-56
2022/08/24 07:54:59;;;;;;;15.75;11.85;;;;;;;25.07;60.84;101678.53;5113222;28;20019;-56
2022/08/24 07:57:25;;;;;;;21.40;12.45;;;;;;;25.19;58.06;101681.78;5113200;28;20032;-57
2022/08/24 07:59:50;;;;;;;13.68;10.95;;;;;;;25.34;58.71;101680.03;5146889;27;20053;-56
2022/08/24 08:02:17;;;;;;;15.68;10.23;;;;;;;25.46;55.84;101681.38;5114294;28;20055;-57
2022/08/24 08:04:42;;;;;;;17.17;10.57;;;;;;;25.44;56.43;101685.28;5113434;28;20081;-56
2022/08/24 08:07:09;;;;;;;14.70;10.32;;;;;;;25.54;56.95;101669.63;5114448;28;20432;-56
2022/08/24 08:09:38;;;;;;;14.02;9.20;;;;;;;25.62;56.09;101685.94;5112968;28;20077;-56
2022/08/24 08:12:05;;;;;;;;;;;;;;;25.86;57.80;101687.75;5113372;28;20027;-56
2022/08/24 08:14:33;;;;;;;16.33;9.38;;;;;;;25.80;55.74;101688.44;5112333;28;19999;-56
2022/08/24 08:17:01;;;;;;;14.33;9.00;;;;;;;25.94;55.68;101686.84;5112960;28;20031;-57
2022/08/24 08:19:28;;;;;;;16.77;9.90;;;;;;;26.10;55.78;101689.50;5112781;28;20840;-57
2022/08/24 08:24:43;;;;;;;12.98;9.48;;;;;;;26.40;54.19;101695.13;5113936;28;20520;-56
2022/08/24 08:27:10;;;;;;;16.83;8.18;;;;;;;26.53;55.86;101692.69;5112770;28;20027;-56
2022/08/24 08:29:39;;;;;;;16.73;7.53;;;;;;;26.70;53.35;101697.00;5113275;28;20024;-57
2022/08/24 08:32:06;;;;;;;10.52;7.10;;;;;;;26.90;52.64;101691.03;5113822;28;20043;-56
2022/08/24 08:34:33;;;;;;;12.18;7.22;;;;;;;27.15;52.35;101698.03;5112552;28;20020;-56
2022/08/24 08:37:02;;;;;;;10.98;6.82;;;;;;;27.23;51.95;101691.63;5113960;28;20499;-56
2022/08/24 08:39:28;;;;;;;10.65;5.53;;;;;;;27.36;52.41;101696.47;5113593;28;20015;-56
2022/08/24 08:42:11;;;;;;;10.50;6.25;;;;;;;27.52;52.12;101698.16;5113554;28;20045;-56
2022/08/24 08:45:17;;;;;;;9.40;6.22;;;;;;;27.67;51.28;101688.06;5112960;28;20073;-57
2022/08/24 08:48:27;;;;;;;8.50;5.60;;;;;;;27.75;50.90;101690.69;5112607;28;20054;-56
2022/08/24 08:51:16;;;;;;;10.82;5.03;;;;;;;27.71;50.32;101700.34;5050756;28;20506;-56
2022/08/24 08:54:07;;;;;;;7.57;4.78;;;;;;;28.00;51.01;101691.28;5110564;28;20482;-56
2022/08/24 08:56:39;;;;;;;6.15;4.80;;;;;;;28.09;49.27;101686.56;5113504;28;20027;-57
2022/08/24 08:59:04;;;;;;;8.43;3.85;;;;;;;28.11;48.63;101689.94;5112519;28;20177;-56
2022/08/24 09:01:48;;;;;;;4.70;3.47;;;;;;;28.06;49.51;101690.53;5113430;28;20051;-56
2022/08/24 09:04:19;;;;;;;6.68;3.75;;;;;;;27.96;48.30;101691.84;5113330;28;20031;-56
2022/08/24 09:06:50;;;;;;;6.35;2.97;;;;;;;27.93;49.21;101698.53;5113429;28;20082;-56
2022/08/24 09:09:35;;;;;;;6.88;2.75;;;;;;;28.00;48.64;101695.88;5113139;28;20023;-57
2022/08/24 09:12:12;;;;;;;7.45;2.80;;;;;;;28.05;47.74;101690.69;5113138;28;20398;-56
2022/08/24 09:15:02;;;;;;;2.93;2.27;;;;;;;28.12;47.12;101705.31;5112420;28;20094;-57
2022/08/24 09:17:44;;;;;;;2.38;2.13;;;;;;;28.01;46.74;101700.34;5113073;28;20055;-57
2022/08/24 09:20:30;;;;;;;5.22;2.38;;;;;;;28.09;48.37;101697.50;5113084;28;20019;-56
2022/08/24 09:23:20;;;;;;;5.50;2.47;;;;;;;28.30;46.83;101700.28;5112665;28;20031;-57
2022/08/24 09:26:19;;;;;;;4.43;3.00;;;;;;;28.48;47.85;101702.59;5112059;28;20043;-56
2022/08/24 09:28:58;;;;;;;8.77;3.30;;;;;;;28.40;46.71;101704.59;5111617;28;20051;-57
2022/08/24 09:31:42;;;;;;;4.65;2.92;;;;;;;28.46;45.28;101701.94;5112749;28;20498;-57
2022/08/24 09:35:00;;;;;;;5.05;2.40;;;;;;;28.70;48.06;101699.88;5111302;28;20029;-56
2022/08/24 09:37:52;;;;;;;;;;;;;;;28.97;45.20;101703.69;5086594;28;20471;-57
2022/08/24 09:40:41;;;;;;;3.70;2.45;;;;;;;29.25;45.38;101700.16;5096662;27;20035;-57
2022/08/24 09:43:38;;;;;;;4.75;3.00;;;;;;;29.40;45.02;101700.91;5111783;28;20039;-57
2022/08/24 09:46:43;;;;;;;5.78;2.40;;;;;;;29.51;43.74;101697.59;5111254;28;20024;-57
2022/08/24 09:49:30;;;;;;;4.05;2.10;;;;;;;29.76;44.00;101702.63;5111699;28;20066;-56
2022/08/24 09:52:25;;;;;;;5.53;2.20;;;;;;;29.84;42.78;101692.31;5111779;27;20055;-57
2022/08/24 09:55:04;;;;;;;5.78;1.95;;;;;;;30.04;43.40;101699.81;5103870;28;20092;-57
2022/08/24 09:57:39;;;;;;;4.03;2.13;;;;;;;30.36;41.86;101701.00;5110767;28;20486;-57
2022/08/24 10:00:17;;;;;;;6.55;2.53;;;;;;;30.39;42.14;101689.63;5111881;28;20054;-57
2022/08/24 10:03:07;;;;;;;5.15;2.40;;;;;;;30.88;42.44;101699.41;5111149;28;20058;-57
2022/08/24 10:05:57;;;;;;;5.20;2.80;;;;;;;31.00;40.72;101703.25;5111118;28;20035;-57
2022/08/24 10:08:55;;;;;;;3.03;2.50;;;;;;;31.33;40.49;101701.53;5112334;28;20038;-57
2022/08/24 10:11:35;;;;;;;8.30;2.53;;;;;;;31.16;39.46;101695.63;5111949;28;20485;-57
2022/08/24 10:14:25;;;;;;;4.38;2.00;;;;;;;31.18;39.68;101699.84;5111867;28;20023;-57
2022/08/24 10:17:11;;;;;;;5.80;1.90;;;;;;;31.21;39.48;101680.19;5110884;28;20024;-57
2022/08/24 10:19:51;;;;;;;5.72;2.10;;;;;;;31.18;39.77;101688.84;5112188;28;20026;-57
2022/08/24 10:22:45;;;;;;;5.82;2.00;;;;;;;30.83;40.26;101690.97;5110833;28;20088;-57
2022/08/24 10:25:46;;;;;;;1.65;1.55;;;;;;;30.68;41.04;101679.28;5112086;28;20031;-57
2022/08/24 10:28:36;;;;;;;4.30;1.75;;;;;;;30.44;40.67;101681.56;5108517;28;20036;-57
2022/08/24 10:31:13;;;;;;;4.28;1.70;;;;;;;30.19;41.14;101675.78;5110752;28;20024;-57
2022/08/24 10:33:54;;;;;;;4.20;1.83;;;;;;;30.10;40.93;101677.03;5110773;28;20106;-57
2022/08/24 10:36:20;;;;;;;4.82;2.08;;;;;;;29.96;41.18;101676.13;5112046;28;20038;-57
2022/08/24 10:45:47;;;;;;;4.80;1.88;;;;;;;30.66;40.13;101675.94;5111570;28;20493;-57
2022/08/24 10:48:28;;;;;;;2.65;2.22;;;;;;;30.95;40.98;101672.81;5110543;28;20027;-57
2022/08/24 10:50:56;;;;;;;2.25;2.00;;;;;;;31.27;38.18;101667.50;5110612;28;20035;-57
2022/08/24 10:53:26;;;;;;;2.67;1.80;;;;;;;31.43;38.96;101672.53;5110340;28;20465;-57
2022/08/24 10:56:15;;;;;;;10.13;2.78;;;;;;;31.85;38.16;101663.94;5110275;28;20039;-57
2022/08/24 10:59:01;;;;;;;9.70;2.20;;;;;;;32.05;37.11;101661.13;5111313;28;20097;-57
2022/08/24 11:01:35;;;;;;;2.38;1.65;;;;;;;32.02;37.48;101661.59;5111301;28;20039;-57
2022/08/24 11:04:24;;;;;;;4.78;2.33;;;;;;;31.84;37.68;101665.84;5113645;28;20016;-57
2022/08/24 11:07:14;;;;;;;3.55;2.30;;;;;;;31.49;38.07;101661.75;5115765;28;20031;-57
2022/08/24 11:10:00;;;;;;;7.07;2.30;;;;;;;31.30;38.64;101660.72;5115122;28;20023;-57
2022/08/24 11:12:44;;;;;;;2.72;2.13;;;;;;;31.20;39.37;101650.16;5115606;28;20051;-57
2022/08/24 11:15:22;;;;;;;3.78;1.77;;;;;;;31.52;39.64;101653.06;5115301;28;20030;-57
2022/08/24 11:17:55;;;;;;;4.20;2.10;;;;;;;31.53;38.79;101654.75;5115309;28;20390;-57
2022/08/24 11:20:27;;;;;;;3.58;1.95;;;;;;;31.73;39.27;101640.94;5114012;28;20497;-57
2022/08/24 11:23:02;;;;;;;4.30;2.20;;;;;;;31.95;38.83;101641.50;5114906;28;20458;-57
2022/08/24 11:25:31;;;;;;;3.22;1.75;;;;;;;32.17;38.32;101642.84;5115393;28;20450;-57
2022/08/24 11:28:13;;;;;;;6.50;2.40;;;;;;;32.06;37.97;101644.41;5113432;28;20379;-57
2022/08/24 11:30:40;;;;;;;3.78;1.80;;;;;;;32.08;37.13;101642.28;5115157;28;20069;-57
2022/08/24 11:33:24;;;;;;;5.15;2.10;;;;;;;32.18;36.73;101640.94;5115006;28;20032;-57
2022/08/24 11:35:50;;;;;;;2.72;2.10;;;;;;;32.19;36.29;101632.47;5114892;28;20079;-57
2022/08/24 11:38:16;;;;;;;3.97;2.08;;;;;;;32.45;37.03;101630.66;5113476;28;20051;-57
2022/08/24 11:40:48;;;;;;;3.10;1.73;;;;;;;32.79;34.90;101635.66;5113969;28;20114;-57
2022/08/24 11:43:29;;;;;;;7.60;2.35;;;;;;;33.10;34.57;101628.41;5114371;28;20036;-57
2022/08/24 11:46:07;;;;;;;3.78;2.10;;;;;;;33.46;34.57;101632.25;5114957;28;20035;-57
2022/08/24 11:48:59;;;;;;;7.82;2.20;;;;;;;33.86;34.14;101637.31;5113538;28;20023;-57